createdAt,value
2019-04-13T00:02:26.569Z,2.30
2019-04-13T00:05:15.445Z,2.30
2019-04-13T00:07:46.814Z,2.20
2019-04-13T00:10:19.901Z,2.10
2019-04-13T00:12:49.496Z,2.10
2019-04-13T00:20:18.402Z,1.90
2019-04-13T00:22:48.716Z,1.90
2019-04-13T00:25:18.364Z,1.80
2019-04-13T00:27:48.236Z,1.80
2019-04-13T00:32:47.780Z,1.80
2019-04-13T00:35:17.397Z,1.80
2019-04-13T00:40:16.948Z,1.80
2019-04-13T00:42:46.683Z,1.80
2019-04-13T00:45:16.810Z,-2.20
2019-04-13T00:52:45.328Z,1.60
2019-04-13T00:55:15.239Z,1.60
2019-04-13T00:57:45.180Z,1.60
2019-04-13T01:00:15.549Z,1.60
2019-04-13T01:02:45.463Z,1.50
2019-04-13T01:05:15.182Z,1.40
2019-04-13T01:07:46.557Z,1.40
2019-04-13T01:10:16.624Z,1.40
2019-04-13T01:15:15.817Z,1.40
2019-04-13T01:17:45.482Z,1.30
2019-04-13T01:20:15.222Z,1.30
2019-04-13T01:22:45.641Z,1.30
2019-04-13T01:25:15.436Z,1.40
2019-04-13T01:27:45.025Z,1.50
2019-04-13T01:30:15.486Z,1.50
2019-04-13T01:32:45.163Z,1.60
2019-04-13T01:35:15.008Z,1.60
2019-04-13T01:37:45.130Z,1.60
2019-04-13T01:40:14.910Z,1.70
2019-04-13T01:45:14.233Z,1.60
2019-04-13T01:47:44.481Z,1.60
2019-04-13T01:50:14.352Z,1.50
2019-04-13T01:52:44.205Z,1.60
2019-04-13T01:55:13.995Z,1.50
2019-04-13T01:57:44.533Z,1.60
2019-04-13T02:00:17.308Z,1.50
2019-04-13T02:05:42.983Z,1.50
2019-04-13T02:11:11.268Z,1.40
2019-04-13T02:13:41.102Z,3.40
2019-04-13T02:16:10.901Z,1.20
2019-04-13T02:18:40.593Z,1.20
2019-04-13T02:21:10.769Z,1.20
2019-04-13T02:23:40.797Z,1.20
2019-04-13T02:26:10.513Z,1.20
2019-04-13T02:28:40.322Z,1.00
2019-04-13T02:31:10.336Z,1.00
2019-04-13T02:33:40.049Z,1.10
2019-04-13T02:36:10.002Z,1.00
2019-04-13T02:41:09.082Z,0.90
2019-04-13T02:43:38.974Z,0.90
2019-04-13T02:46:09.173Z,0.90
2019-04-13T02:51:07.842Z,0.90
2019-04-13T02:56:07.474Z,0.80
2019-04-13T02:58:37.151Z,0.80
2019-04-13T03:03:37.434Z,0.80
2019-04-13T03:06:07.425Z,0.80
2019-04-13T03:08:37.442Z,0.90
2019-04-13T03:11:07.150Z,0.90
2019-04-13T03:13:36.914Z,0.80
2019-04-13T03:16:37.510Z,0.80
2019-04-13T03:19:29.557Z,0.80
2019-04-13T03:24:28.549Z,0.80
2019-04-13T03:26:58.152Z,0.80
2019-04-13T03:29:28.170Z,0.80
2019-04-13T03:31:57.954Z,0.80
2019-04-13T03:34:28.052Z,0.80
2019-04-13T03:36:57.776Z,0.80
2019-04-13T03:39:27.722Z,0.80
2019-04-13T03:41:59.160Z,0.80
2019-04-13T03:44:28.711Z,0.80
2019-04-13T03:46:59.117Z,0.70
2019-04-13T03:49:29.053Z,2.00
2019-04-13T03:51:58.925Z,0.80
2019-04-13T03:54:29.259Z,0.70
2019-04-13T03:59:28.056Z,0.70
2019-04-13T04:01:58.352Z,0.60
2019-04-13T04:04:28.026Z,0.60
2019-04-13T04:06:58.001Z,0.60
2019-04-13T04:09:28.341Z,0.60
2019-04-13T04:11:58.074Z,0.60
2019-04-13T04:14:28.046Z,0.50
2019-04-13T04:16:57.849Z,0.60
2019-04-13T04:19:28.027Z,0.50
2019-04-13T04:21:57.721Z,0.50
2019-04-13T04:27:00.624Z,0.40
2019-04-13T04:29:30.417Z,0.40
2019-04-13T04:32:00.403Z,0.40
2019-04-13T04:34:30.642Z,0.40
2019-04-13T04:37:00.181Z,0.40
2019-04-13T04:39:30.398Z,0.40
2019-04-13T04:41:59.980Z,2.10
2019-04-13T04:44:29.520Z,0.40
2019-04-13T04:49:28.596Z,0.40
2019-04-13T04:51:58.395Z,0.40
2019-04-13T04:54:28.524Z,0.40
2019-04-13T04:56:58.211Z,0.50
2019-04-13T04:59:27.928Z,0.50
2019-04-13T05:01:58.201Z,0.50
2019-04-13T05:04:28.196Z,0.50
2019-04-13T05:06:57.728Z,0.50
2019-04-13T05:09:27.734Z,0.60
2019-04-13T05:11:57.436Z,0.80
2019-04-13T05:14:27.036Z,0.70
2019-04-13T05:16:56.846Z,0.70
2019-04-13T05:19:26.786Z,0.80
2019-04-13T05:21:56.561Z,3.00
2019-04-13T05:26:55.326Z,0.80
2019-04-13T05:29:24.865Z,0.80
2019-04-13T05:34:23.918Z,0.90
2019-04-13T05:39:22.629Z,1.10
2019-04-13T05:44:21.301Z,1.10
2019-04-13T05:46:51.192Z,1.20
2019-04-13T05:49:20.884Z,1.30
2019-04-13T05:56:49.273Z,1.50
2019-04-13T06:01:48.153Z,1.70
2019-04-13T06:04:18.109Z,1.90
2019-04-13T06:06:59.383Z,2.00
2019-04-13T06:09:19.947Z,1.90
2019-04-13T06:11:49.587Z,2.00
2019-04-13T06:16:48.295Z,2.10
2019-04-13T06:24:15.925Z,2.40
2019-04-13T06:32:02.760Z,3.50
2019-04-13T06:37:12.747Z,5.60
2019-04-13T06:39:42.315Z,6.00
2019-04-13T06:42:16.069Z,6.30
2019-04-13T06:44:43.425Z,6.40
2019-04-13T06:49:41.843Z,7.80
2019-04-13T06:57:11.329Z,7.80
2019-04-13T06:59:41.422Z,8.10
2019-04-13T07:02:10.957Z,7.80
2019-04-13T07:04:40.857Z,8.50
2019-04-13T07:07:24.341Z,9.60
2019-04-13T07:10:07.114Z,9.60
2019-04-13T07:12:55.770Z,9.20
2019-04-13T07:15:30.177Z,9.20
2019-04-13T07:20:28.013Z,9.10
2019-04-13T07:22:57.664Z,9.60
2019-04-13T07:25:27.481Z,9.40
2019-04-13T07:27:57.065Z,9.80
2019-04-13T07:30:26.610Z,10.20
2019-04-13T07:32:56.485Z,11.20
2019-04-13T07:37:55.297Z,10.40
2019-04-13T07:40:25.137Z,11.00
2019-04-13T07:42:54.720Z,11.10
2019-04-13T07:48:32.460Z,10.10
2019-04-13T07:51:06.726Z,10.10
2019-04-13T07:53:36.612Z,10.00
2019-04-13T07:58:35.177Z,10.60
2019-04-13T08:01:06.624Z,10.30
2019-04-13T08:03:36.176Z,9.40
2019-04-13T08:08:39.925Z,9.30
2019-04-13T08:11:07.337Z,8.70
2019-04-13T08:13:36.874Z,7.50
2019-04-13T08:16:09.345Z,7.50
2019-04-13T08:21:21.779Z,7.50
2019-04-13T08:23:55.296Z,7.90
2019-04-13T08:26:24.987Z,7.50
2019-04-13T08:28:54.813Z,7.20
2019-04-13T08:33:56.664Z,5.80
2019-04-13T08:38:58.973Z,6.00
2019-04-13T08:41:28.100Z,6.10
2019-04-13T08:43:57.629Z,6.40
2019-04-13T08:48:58.068Z,7.20
2019-04-13T08:51:27.625Z,7.50
2019-04-13T08:53:57.537Z,8.70
2019-04-13T08:56:30.796Z,9.20
2019-04-13T08:58:58.427Z,10.20
2019-04-13T09:01:28.306Z,10.80
2019-04-13T09:03:58.361Z,11.90
2019-04-13T09:06:27.908Z,12.10
2019-04-13T09:11:26.842Z,8.90
2019-04-13T09:13:56.341Z,8.60
2019-04-13T09:19:17.090Z,7.70
2019-04-13T09:21:54.159Z,7.70
2019-04-13T09:24:24.037Z,7.80
2019-04-13T09:26:53.582Z,8.30
2019-04-13T09:29:23.638Z,9.00
2019-04-13T09:34:32.939Z,7.70
2019-04-13T09:36:53.305Z,7.30
2019-04-13T09:39:22.936Z,7.40
2019-04-13T09:47:12.870Z,6.50
2019-04-13T09:49:42.469Z,6.70
2019-04-13T09:54:43.329Z,6.90
2019-04-13T09:59:41.470Z,6.80
2019-04-13T10:02:11.418Z,6.60
2019-04-13T10:04:41.047Z,6.70
2019-04-13T10:07:10.574Z,6.60
2019-04-13T10:12:32.452Z,6.70
2019-04-13T10:18:07.240Z,7.00
2019-04-13T10:20:39.229Z,7.30
2019-04-13T10:25:38.359Z,7.10
2019-04-13T10:28:08.929Z,6.90
2019-04-13T10:30:38.462Z,6.80
2019-04-13T10:33:08.371Z,6.90
2019-04-13T10:35:38.354Z,7.10
2019-04-13T10:38:07.881Z,7.40
2019-04-13T10:40:37.488Z,7.40
2019-04-13T10:45:50.345Z,7.10
2019-04-13T10:51:14.901Z,6.80
2019-04-13T10:53:44.497Z,6.90
2019-04-13T11:03:41.611Z,6.70
2019-04-13T11:06:11.245Z,6.80
2019-04-13T11:13:39.005Z,6.50
2019-04-13T11:16:08.676Z,6.50
2019-04-13T11:18:38.644Z,6.20
2019-04-13T11:21:08.273Z,5.90
2019-04-13T11:23:45.037Z,5.90
2019-04-13T11:26:09.072Z,5.80
2019-04-13T11:28:39.251Z,6.00
2019-04-13T11:31:09.766Z,6.50
2019-04-13T11:33:42.483Z,6.60
2019-04-13T11:36:11.072Z,7.00
2019-04-13T11:41:19.645Z,5.70
2019-04-13T11:44:06.921Z,3.50
2019-04-13T11:49:16.853Z,5.30
2019-04-13T11:51:48.077Z,5.40
2019-04-13T11:54:20.838Z,5.20
2019-04-13T11:56:50.724Z,5.20
2019-04-13T12:02:08.170Z,5.30
2019-04-13T12:16:55.703Z,5.80
2019-04-13T12:19:30.000Z,6.00
2019-04-13T12:22:12.528Z,6.40
2019-04-13T12:27:11.056Z,6.70
2019-04-13T12:32:34.669Z,6.60
2019-04-13T12:35:07.910Z,6.40
2019-04-13T12:37:36.246Z,6.70
2019-04-13T12:40:26.077Z,6.80
2019-04-13T12:43:01.810Z,4.80
2019-04-13T12:45:32.583Z,7.00
2019-04-13T12:48:09.188Z,7.10
2019-04-13T12:50:38.741Z,7.10
2019-04-13T12:53:08.292Z,7.40
2019-04-13T13:00:45.889Z,7.60
2019-04-13T13:03:23.103Z,8.00
2019-04-13T13:08:23.373Z,8.30
2019-04-13T13:10:53.048Z,8.20
2019-04-13T13:13:22.833Z,8.90
2019-04-13T13:15:52.431Z,7.70
2019-04-13T13:18:26.177Z,7.60
2019-04-13T13:23:22.433Z,7.50
2019-04-13T13:25:52.064Z,7.80
2019-04-13T13:28:21.876Z,8.00
2019-04-13T13:30:51.779Z,8.20
2019-04-13T13:35:50.801Z,7.50
2019-04-13T13:58:10.393Z,6.00
2019-04-13T14:01:18.952Z,6.10
2019-04-13T14:03:48.685Z,6.20
2019-04-13T14:06:20.912Z,6.40
2019-04-13T14:08:56.683Z,6.70
2019-04-13T14:14:34.515Z,7.30
2019-04-13T14:17:04.485Z,7.20
2019-04-13T14:19:34.133Z,7.30
2019-04-13T14:22:10.764Z,7.20
2019-04-13T14:29:44.860Z,7.40
2019-04-13T14:32:14.470Z,7.50
2019-04-13T14:34:52.398Z,7.20
2019-04-13T14:37:21.980Z,7.00
2019-04-13T14:42:27.445Z,6.50
2019-04-13T14:44:59.770Z,6.40
2019-04-13T14:47:29.628Z,6.20
2019-04-13T14:55:22.546Z,6.50
2019-04-13T15:00:21.355Z,6.60
2019-04-13T15:02:58.433Z,6.60
2019-04-13T15:05:28.975Z,6.10
2019-04-13T15:07:58.541Z,6.10
2019-04-13T15:10:35.416Z,5.90
2019-04-13T15:18:34.876Z,5.80
2019-04-13T15:21:11.084Z,6.00
2019-04-13T15:23:42.556Z,6.10
2019-04-13T15:26:19.010Z,5.80
2019-04-13T15:28:49.473Z,5.90
2019-04-13T15:33:58.095Z,5.60
2019-04-13T15:36:30.911Z,5.70
2019-04-13T15:39:01.550Z,5.20
2019-04-13T15:41:46.136Z,5.40
2019-04-13T15:44:09.485Z,5.30
2019-04-13T15:49:15.441Z,5.60
2019-04-13T15:54:22.275Z,5.60
2019-04-13T15:59:21.613Z,5.90
2019-04-13T16:01:59.411Z,6.00
2019-04-13T16:04:29.043Z,6.00
2019-04-13T16:12:38.977Z,6.20
2019-04-13T16:15:16.363Z,6.00
2019-04-13T16:20:22.862Z,6.10
2019-04-13T16:25:30.563Z,6.20
2019-04-13T16:28:28.714Z,6.30
2019-04-13T16:31:15.970Z,6.20
2019-04-13T16:36:56.598Z,6.20
2019-04-13T16:42:08.693Z,6.50
2019-04-13T16:44:58.361Z,6.50
2019-04-13T16:48:05.082Z,6.40
2019-04-13T16:50:51.593Z,8.40
2019-04-13T16:53:40.889Z,6.50
2019-04-13T16:56:41.961Z,6.50
2019-04-13T16:59:39.241Z,6.40
2019-04-13T17:02:33.797Z,5.70
2019-04-13T17:05:07.222Z,6.30
2019-04-13T17:07:44.718Z,5.30
2019-04-13T17:10:14.932Z,6.30
2019-04-13T17:12:46.282Z,6.10
2019-04-13T17:15:31.262Z,6.00
2019-04-13T17:18:10.004Z,5.90
2019-04-13T17:21:13.484Z,5.80
2019-04-13T17:24:07.333Z,5.80
2019-04-13T17:27:05.163Z,5.80
2019-04-13T17:29:50.231Z,5.70
2019-04-13T17:37:54.806Z,5.50
2019-04-13T17:40:36.733Z,5.40
2019-04-13T17:46:36.993Z,5.40
2019-04-13T17:55:04.747Z,4.50
2019-04-13T17:58:06.753Z,4.30
2019-04-13T18:01:10.322Z,3.90
2019-04-13T18:07:21.742Z,3.60
2019-04-13T18:18:47.738Z,3.10
2019-04-13T18:21:24.209Z,3.10
2019-04-13T18:39:13.435Z,3.20
2019-04-13T18:49:20.188Z,1.50
2019-04-13T18:54:26.504Z,3.60
2019-04-13T18:56:56.187Z,3.50
2019-04-13T18:59:33.647Z,3.70
2019-04-13T19:04:39.924Z,3.60
2019-04-13T19:07:09.525Z,2.10
2019-04-13T19:09:39.374Z,3.70
2019-04-13T19:12:16.042Z,3.10
2019-04-13T19:14:45.626Z,3.60
2019-04-13T19:25:03.153Z,3.30
2019-04-13T19:27:33.617Z,3.20
2019-04-13T19:30:10.770Z,3.00
2019-04-13T19:36:03.925Z,2.80
2019-04-13T19:41:03.486Z,2.80
2019-04-13T19:43:33.985Z,2.70
2019-04-13T19:46:03.684Z,2.80
2019-04-13T19:48:33.590Z,2.60
2019-04-13T19:51:03.670Z,2.70
2019-04-13T19:53:43.910Z,2.60
2019-04-13T19:58:44.785Z,2.30
2019-04-13T20:03:45.629Z,2.20
2019-04-13T20:06:19.181Z,2.20
2019-04-13T20:08:46.891Z,2.10
2019-04-13T20:11:16.844Z,2.10
2019-04-13T20:13:53.429Z,0.10
2019-04-13T20:16:18.896Z,2.00
2019-04-13T20:18:48.863Z,1.90
2019-04-13T20:21:18.424Z,3.90
2019-04-13T20:26:18.613Z,1.90
2019-04-13T20:31:18.238Z,1.90
2019-04-13T20:36:22.584Z,1.90
2019-04-13T20:38:52.070Z,0.30
2019-04-13T20:43:59.565Z,1.90
2019-04-13T20:46:25.736Z,1.90
2019-04-13T20:48:55.532Z,1.90
2019-04-13T20:51:25.746Z,2.00
2019-04-13T20:53:55.992Z,2.10
2019-04-13T20:56:25.662Z,2.10
2019-04-13T21:01:25.835Z,0.90
2019-04-13T21:03:55.611Z,2.20
2019-04-13T21:08:55.994Z,2.20
2019-04-13T21:11:25.640Z,2.30
2019-04-13T21:16:26.215Z,2.30
2019-04-13T21:21:25.980Z,2.30
2019-04-13T21:26:26.977Z,2.40
2019-04-13T21:28:58.261Z,4.70
2019-04-13T21:33:58.286Z,2.60
2019-04-13T21:38:58.411Z,2.50
2019-04-13T21:44:10.023Z,2.50
2019-04-13T21:48:58.984Z,2.50
2019-04-13T21:54:21.380Z,2.50
2019-04-13T21:56:51.515Z,2.40
2019-04-13T21:59:21.549Z,2.40
2019-04-13T22:02:20.414Z,2.30
2019-04-13T22:04:50.397Z,2.40
2019-04-13T22:07:20.163Z,2.30
2019-04-13T22:09:50.056Z,2.30
2019-04-13T22:14:54.956Z,2.20
2019-04-13T22:17:22.487Z,2.10
2019-04-13T22:19:52.943Z,2.00
2019-04-13T22:22:23.553Z,1.90
2019-04-13T22:24:54.787Z,2.00
2019-04-13T22:27:27.037Z,1.80
2019-04-13T22:29:57.487Z,1.70
2019-04-13T22:32:58.733Z,1.70
2019-04-13T22:38:11.321Z,1.80
2019-04-13T22:40:41.234Z,1.70
2019-04-13T22:43:11.075Z,1.60
2019-04-13T22:45:42.503Z,1.60
2019-04-13T22:48:26.980Z,1.60
2019-04-13T22:53:59.314Z,1.40
2019-04-13T22:59:05.330Z,1.20
2019-04-13T23:04:05.952Z,1.10
2019-04-13T23:09:08.586Z,1.00
2019-04-13T23:11:38.931Z,1.00
2019-04-13T23:16:39.153Z,1.00
2019-04-13T23:21:41.871Z,1.10
2019-04-13T23:24:12.378Z,1.20
2019-04-13T23:29:10.969Z,1.20
2019-04-13T23:34:11.513Z,1.50
2019-04-13T23:39:10.588Z,1.50
2019-04-13T23:41:40.742Z,1.50
2019-04-13T23:44:11.331Z,1.50
2019-04-13T23:49:12.284Z,1.50
2019-04-13T23:54:12.954Z,1.40
2019-04-13T23:56:50.016Z,1.40
2019-04-13T23:59:26.344Z,1.40
